sensor_id;sensor_type;location;lat;lon;timestamp;temperature;humidity
44851;DHT22;30583;48.714;9.386;2023-02-27T00:00:08;0.60;60.00
44851;DHT22;30583;48.714;9.386;2023-02-27T00:02:39;0.20;61.50
44851;DHT22;30583;48.714;9.386;2023-02-27T00:05:05;0.60;60.10
44851;DHT22;30583;48.714;9.386;2023-02-27T00:07:31;0.10;61.40
44851;DHT22;30583;48.714;9.386;2023-02-27T00:09:57;0.20;62.30
44851;DHT22;30583;48.714;9.386;2023-02-27T00:12:23;0.30;61.20
44851;DHT22;30583;48.714;9.386;2023-02-27T00:14:48;0.40;60.80
44851;DHT22;30583;48.714;9.386;2023-02-27T00:17:15;0.60;60.90
44851;DHT22;30583;48.714;9.386;2023-02-27T00:19:41;0.80;60.30
44851;DHT22;30583;48.714;9.386;2023-02-27T00:22:06;0.50;60.70
44851;DHT22;30583;48.714;9.386;2023-02-27T00:24:32;0.40;61.60
44851;DHT22;30583;48.714;9.386;2023-02-27T00:26:58;0.50;61.00
44851;DHT22;30583;48.714;9.386;2023-02-27T00:29:23;0.60;60.80
44851;DHT22;30583;48.714;9.386;2023-02-27T00:31:49;0.50;61.00
44851;DHT22;30583;48.714;9.386;2023-02-27T00:34:15;0.20;62.30
44851;DHT22;30583;48.714;9.386;2023-02-27T00:36:40;0.40;61.20
44851;DHT22;30583;48.714;9.386;2023-02-27T00:39:06;0.70;61.20
44851;DHT22;30583;48.714;9.386;2023-02-27T00:41:31;0.70;60.50
44851;DHT22;30583;48.714;9.386;2023-02-27T00:43:57;0.50;60.80
44851;DHT22;30583;48.714;9.386;2023-02-27T00:46:23;0.20;61.20
44851;DHT22;30583;48.714;9.386;2023-02-27T00:48:48;0.20;62.60
44851;DHT22;30583;48.714;9.386;2023-02-27T00:51:14;-3276.70;63.30
44851;DHT22;30583;48.714;9.386;2023-02-27T00:53:39;0.50;61.50
44851;DHT22;30583;48.714;9.386;2023-02-27T00:56:05;0.40;61.70
44851;DHT22;30583;48.714;9.386;2023-02-27T00:58:31;0.40;61.10
44851;DHT22;30583;48.714;9.386;2023-02-27T01:00:58;0.10;62.50
44851;DHT22;30583;48.714;9.386;2023-02-27T01:03:24;0.40;62.60
44851;DHT22;30583;48.714;9.386;2023-02-27T01:05:50;0.00;62.40
44851;DHT22;30583;48.714;9.386;2023-02-27T01:08:16;0.00;63.30
44851;DHT22;30583;48.714;9.386;2023-02-27T01:10:42;0.30;62.80
44851;DHT22;30583;48.714;9.386;2023-02-27T01:13:08;0.00;63.60
44851;DHT22;30583;48.714;9.386;2023-02-27T01:15:33;0.00;63.60
44851;DHT22;30583;48.714;9.386;2023-02-27T01:17:59;0.30;63.10
44851;DHT22;30583;48.714;9.386;2023-02-27T01:20:25;0.20;62.70
44851;DHT22;30583;48.714;9.386;2023-02-27T01:22:50;0.20;62.30
44851;DHT22;30583;48.714;9.386;2023-02-27T01:25:16;0.10;62.60
44851;DHT22;30583;48.714;9.386;2023-02-27T01:27:41;0.40;62.70
44851;DHT22;30583;48.714;9.386;2023-02-27T01:30:08;0.20;62.70
44851;DHT22;30583;48.714;9.386;2023-02-27T01:32:35;0.20;62.80
44851;DHT22;30583;48.714;9.386;2023-02-27T01:35:01;0.40;63.20
44851;DHT22;30583;48.714;9.386;2023-02-27T01:37:26;0.00;63.50
44851;DHT22;30583;48.714;9.386;2023-02-27T01:39:52;0.00;64.30
44851;DHT22;30583;48.714;9.386;2023-02-27T01:42:20;0.30;63.30
44851;DHT22;30583;48.714;9.386;2023-02-27T01:45:09;-3276.70;64.70
44851;DHT22;30583;48.714;9.386;2023-02-27T01:47:45;-3276.70;64.30
44851;DHT22;30583;48.714;9.386;2023-02-27T01:50:13;0.00;64.80
44851;DHT22;30583;48.714;9.386;2023-02-27T01:52:40;0.00;64.50
44851;DHT22;30583;48.714;9.386;2023-02-27T01:55:07;0.00;65.30
44851;DHT22;30583;48.714;9.386;2023-02-27T01:57:35;0.20;64.40
44851;DHT22;30583;48.714;9.386;2023-02-27T02:00:01;0.20;64.40
44851;DHT22;30583;48.714;9.386;2023-02-27T02:02:32;0.20;64.10
44851;DHT22;30583;48.714;9.386;2023-02-27T02:04:59;-3276.60;64.50
44851;DHT22;30583;48.714;9.386;2023-02-27T02:07:25;0.00;65.10
44851;DHT22;30583;48.714;9.386;2023-02-27T02:09:54;0.00;65.30
44851;DHT22;30583;48.714;9.386;2023-02-27T02:12:24;-3276.70;65.10
44851;DHT22;30583;48.714;9.386;2023-02-27T02:14:51;-3276.60;67.00
44851;DHT22;30583;48.714;9.386;2023-02-27T02:20:42;0.10;64.90
44851;DHT22;30583;48.714;9.386;2023-02-27T02:26:57;-3276.70;65.30
44851;DHT22;30583;48.714;9.386;2023-02-27T02:29:46;-3276.50;66.30
44851;DHT22;30583;48.714;9.386;2023-02-27T02:32:38;-3276.70;66.20
44851;DHT22;30583;48.714;9.386;2023-02-27T02:35:28;0.00;66.50
44851;DHT22;30583;48.714;9.386;2023-02-27T02:52:26;0.00;67.40
44851;DHT22;30583;48.714;9.386;2023-02-27T02:55:05;-3276.50;66.50
44851;DHT22;30583;48.714;9.386;2023-02-27T02:57:41;-3276.50;67.20
44851;DHT22;30583;48.714;9.386;2023-02-27T03:00:30;-3276.60;66.80
44851;DHT22;30583;48.714;9.386;2023-02-27T03:05:42;-3276.70;66.60
44851;DHT22;30583;48.714;9.386;2023-02-27T03:08:13;-3276.60;66.90
44851;DHT22;30583;48.714;9.386;2023-02-27T03:11:09;-3276.60;67.10
44851;DHT22;30583;48.714;9.386;2023-02-27T03:13:52;-3276.60;67.40
44851;DHT22;30583;48.714;9.386;2023-02-27T03:16:40;-3276.60;66.70
44851;DHT22;30583;48.714;9.386;2023-02-27T03:19:21;-3276.50;67.00
44851;DHT22;30583;48.714;9.386;2023-02-27T03:24:20;-3276.50;67.00
44851;DHT22;30583;48.714;9.386;2023-02-27T03:26:49;-3276.60;67.40
44851;DHT22;30583;48.714;9.386;2023-02-27T03:29:20;-3276.50;67.50
44851;DHT22;30583;48.714;9.386;2023-02-27T03:31:55;-3276.70;66.70
44851;DHT22;30583;48.714;9.386;2023-02-27T03:34:33;-3276.60;67.10
44851;DHT22;30583;48.714;9.386;2023-02-27T03:39:45;0.10;66.90
44851;DHT22;30583;48.714;9.386;2023-02-27T03:42:30;0.00;66.40
44851;DHT22;30583;48.714;9.386;2023-02-27T03:45:02;-3276.50;66.60
44851;DHT22;30583;48.714;9.386;2023-02-27T03:47:30;-3276.60;68.20
44851;DHT22;30583;48.714;9.386;2023-02-27T03:49:57;-3276.50;67.70
44851;DHT22;30583;48.714;9.386;2023-02-27T03:52:25;-3276.40;67.30
44851;DHT22;30583;48.714;9.386;2023-02-27T03:55:11;-3276.60;68.10
44851;DHT22;30583;48.714;9.386;2023-02-27T03:57:37;-3276.30;67.90
44851;DHT22;30583;48.714;9.386;2023-02-27T04:00:11;-3276.60;68.40
44851;DHT22;30583;48.714;9.386;2023-02-27T04:02:38;-3276.50;67.60
44851;DHT22;30583;48.714;9.386;2023-02-27T04:05:05;-3276.60;68.00
44851;DHT22;30583;48.714;9.386;2023-02-27T04:13:57;-3276.40;68.20
44851;DHT22;30583;48.714;9.386;2023-02-27T04:16:41;-3276.60;67.10
44851;DHT22;30583;48.714;9.386;2023-02-27T04:19:14;-3276.50;67.80
44851;DHT22;30583;48.714;9.386;2023-02-27T04:22:29;-3276.30;68.20
44851;DHT22;30583;48.714;9.386;2023-02-27T04:25:21;-3276.60;67.80
44851;DHT22;30583;48.714;9.386;2023-02-27T04:30:33;0.00;67.50
44851;DHT22;30583;48.714;9.386;2023-02-27T04:33:06;-3276.20;68.70
44851;DHT22;30583;48.714;9.386;2023-02-27T04:35:37;-3276.40;68.00
44851;DHT22;30583;48.714;9.386;2023-02-27T04:41:37;-3276.30;68.10
44851;DHT22;30583;48.714;9.386;2023-02-27T04:44:05;-3276.30;68.50
44851;DHT22;30583;48.714;9.386;2023-02-27T04:46:33;-3276.40;68.20
44851;DHT22;30583;48.714;9.386;2023-02-27T04:49:12;-3276.60;68.60
44851;DHT22;30583;48.714;9.386;2023-02-27T04:52:07;0.00;68.50
44851;DHT22;30583;48.714;9.386;2023-02-27T04:54:55;-3276.40;67.90
44851;DHT22;30583;48.714;9.386;2023-02-27T04:57:29;-3276.30;68.70
44851;DHT22;30583;48.714;9.386;2023-02-27T04:59:58;-3276.10;69.00
44851;DHT22;30583;48.714;9.386;2023-02-27T05:02:33;-3276.40;67.90
44851;DHT22;30583;48.714;9.386;2023-02-27T05:05:04;-3276.60;68.10
44851;DHT22;30583;48.714;9.386;2023-02-27T05:07:36;-3276.60;67.90
44851;DHT22;30583;48.714;9.386;2023-02-27T05:10:06;-3276.30;67.70
44851;DHT22;30583;48.714;9.386;2023-02-27T05:12:54;-3276.10;69.20
44851;DHT22;30583;48.714;9.386;2023-02-27T05:15:41;-3276.20;68.90
44851;DHT22;30583;48.714;9.386;2023-02-27T05:18:10;-3276.60;67.90
44851;DHT22;30583;48.714;9.386;2023-02-27T05:21:10;-3276.50;67.10
44851;DHT22;30583;48.714;9.386;2023-02-27T05:29:18;0.00;67.20
44851;DHT22;30583;48.714;9.386;2023-02-27T05:34:35;0.00;67.40
44851;DHT22;30583;48.714;9.386;2023-02-27T05:37:48;0.00;66.60
44851;DHT22;30583;48.714;9.386;2023-02-27T05:40:15;0.10;66.60
44851;DHT22;30583;48.714;9.386;2023-02-27T05:43:03;-3276.60;67.10
44851;DHT22;30583;48.714;9.386;2023-02-27T05:45:32;-3276.50;67.80
44851;DHT22;30583;48.714;9.386;2023-02-27T05:48:06;-3276.60;68.30
44851;DHT22;30583;48.714;9.386;2023-02-27T05:50:34;-3276.60;67.00
44851;DHT22;30583;48.714;9.386;2023-02-27T05:53:05;-3276.60;67.10
44851;DHT22;30583;48.714;9.386;2023-02-27T05:55:38;-3276.50;67.70
44851;DHT22;30583;48.714;9.386;2023-02-27T05:58:26;-3276.50;68.10
44851;DHT22;30583;48.714;9.386;2023-02-27T06:03:21;-3276.50;67.90
44851;DHT22;30583;48.714;9.386;2023-02-27T06:05:50;-3276.70;67.80
44851;DHT22;30583;48.714;9.386;2023-02-27T06:08:18;-3276.50;67.90
44851;DHT22;30583;48.714;9.386;2023-02-27T06:10:43;-3276.30;68.20
44851;DHT22;30583;48.714;9.386;2023-02-27T06:13:09;-3276.40;67.90
44851;DHT22;30583;48.714;9.386;2023-02-27T06:15:35;-3276.60;72.80
44851;DHT22;30583;48.714;9.386;2023-02-27T06:18:00;-3276.60;69.80
44851;DHT22;30583;48.714;9.386;2023-02-27T06:20:26;-3276.50;68.40
44851;DHT22;30583;48.714;9.386;2023-02-27T06:22:52;-3276.70;68.00
44851;DHT22;30583;48.714;9.386;2023-02-27T06:25:17;0.20;67.60
44851;DHT22;30583;48.714;9.386;2023-02-27T06:27:43;-3276.50;67.30
44851;DHT22;30583;48.714;9.386;2023-02-27T06:30:09;-3276.10;68.60
44851;DHT22;30583;48.714;9.386;2023-02-27T06:32:35;-3276.50;68.80
44851;DHT22;30583;48.714;9.386;2023-02-27T06:35:00;-3276.20;68.40
44851;DHT22;30583;48.714;9.386;2023-02-27T06:37:26;-3276.20;68.80
44851;DHT22;30583;48.714;9.386;2023-02-27T06:39:52;-3276.70;67.70
44851;DHT22;30583;48.714;9.386;2023-02-27T06:42:17;-3276.40;67.50
44851;DHT22;30583;48.714;9.386;2023-02-27T06:44:43;-3276.30;68.80
44851;DHT22;30583;48.714;9.386;2023-02-27T06:47:09;-3276.40;68.70
44851;DHT22;30583;48.714;9.386;2023-02-27T06:49:34;-3276.30;68.00
44851;DHT22;30583;48.714;9.386;2023-02-27T06:52:00;-3276.40;67.70
44851;DHT22;30583;48.714;9.386;2023-02-27T06:54:26;-3276.40;67.30
44851;DHT22;30583;48.714;9.386;2023-02-27T06:56:51;0.00;66.30
44851;DHT22;30583;48.714;9.386;2023-02-27T06:59:17;-3276.50;67.00
44851;DHT22;30583;48.714;9.386;2023-02-27T07:01:43;-3276.60;67.20
44851;DHT22;30583;48.714;9.386;2023-02-27T07:04:12;-3276.50;67.10
44851;DHT22;30583;48.714;9.386;2023-02-27T07:06:38;-3276.50;67.20
44851;DHT22;30583;48.714;9.386;2023-02-27T07:09:03;-3276.40;67.20
44851;DHT22;30583;48.714;9.386;2023-02-27T07:11:29;-3276.70;67.10
44851;DHT22;30583;48.714;9.386;2023-02-27T07:13:55;-3276.50;66.50
44851;DHT22;30583;48.714;9.386;2023-02-27T07:16:21;-3276.60;66.20
44851;DHT22;30583;48.714;9.386;2023-02-27T07:18:46;-3276.60;66.40
44851;DHT22;30583;48.714;9.386;2023-02-27T07:21:12;-3276.60;66.80
44851;DHT22;30583;48.714;9.386;2023-02-27T07:23:39;-3276.60;66.60
44851;DHT22;30583;48.714;9.386;2023-02-27T07:26:05;0.00;65.20
44851;DHT22;30583;48.714;9.386;2023-02-27T07:28:30;0.00;66.10
44851;DHT22;30583;48.714;9.386;2023-02-27T07:30:56;0.20;65.00
44851;DHT22;30583;48.714;9.386;2023-02-27T07:33:22;0.00;65.10
44851;DHT22;30583;48.714;9.386;2023-02-27T07:35:48;0.00;65.10
44851;DHT22;30583;48.714;9.386;2023-02-27T07:38:14;-3276.60;65.60
44851;DHT22;30583;48.714;9.386;2023-02-27T07:40:39;0.10;65.20
44851;DHT22;30583;48.714;9.386;2023-02-27T07:43:06;0.00;64.80
44851;DHT22;30583;48.714;9.386;2023-02-27T07:45:32;0.20;64.30
44851;DHT22;30583;48.714;9.386;2023-02-27T07:47:57;0.00;64.80
44851;DHT22;30583;48.714;9.386;2023-02-27T07:50:23;0.50;63.30
44851;DHT22;30583;48.714;9.386;2023-02-27T07:52:50;0.30;63.30
44851;DHT22;30583;48.714;9.386;2023-02-27T07:55:16;0.50;63.30
44851;DHT22;30583;48.714;9.386;2023-02-27T07:57:43;0.60;63.30
44851;DHT22;30583;48.714;9.386;2023-02-27T08:00:10;0.50;63.30
44851;DHT22;30583;48.714;9.386;2023-02-27T08:02:36;0.60;62.30
44851;DHT22;30583;48.714;9.386;2023-02-27T08:05:02;0.60;62.70
44851;DHT22;30583;48.714;9.386;2023-02-27T08:07:27;0.70;61.80
44851;DHT22;30583;48.714;9.386;2023-02-27T08:09:53;1.10;62.00
44851;DHT22;30583;48.714;9.386;2023-02-27T08:12:18;0.90;60.90
44851;DHT22;30583;48.714;9.386;2023-02-27T08:14:44;0.70;61.80
44851;DHT22;30583;48.714;9.386;2023-02-27T08:17:10;0.80;61.50
44851;DHT22;30583;48.714;9.386;2023-02-27T08:19:35;0.80;61.70
44851;DHT22;30583;48.714;9.386;2023-02-27T08:22:01;1.20;60.30
44851;DHT22;30583;48.714;9.386;2023-02-27T08:24:26;1.00;60.30
44851;DHT22;30583;48.714;9.386;2023-02-27T08:26:52;0.90;60.40
44851;DHT22;30583;48.714;9.386;2023-02-27T08:29:18;1.00;60.40
44851;DHT22;30583;48.714;9.386;2023-02-27T08:31:43;1.20;60.40
44851;DHT22;30583;48.714;9.386;2023-02-27T08:34:11;1.30;59.90
44851;DHT22;30583;48.714;9.386;2023-02-27T08:36:37;1.20;59.50
44851;DHT22;30583;48.714;9.386;2023-02-27T08:39:03;1.20;59.50
44851;DHT22;30583;48.714;9.386;2023-02-27T08:41:29;1.20;59.10
44851;DHT22;30583;48.714;9.386;2023-02-27T08:43:54;1.20;59.00
44851;DHT22;30583;48.714;9.386;2023-02-27T08:46:20;1.60;58.40
44851;DHT22;30583;48.714;9.386;2023-02-27T08:48:45;1.50;57.90
44851;DHT22;30583;48.714;9.386;2023-02-27T08:51:11;1.40;57.90
44851;DHT22;30583;48.714;9.386;2023-02-27T08:53:36;1.60;57.70
44851;DHT22;30583;48.714;9.386;2023-02-27T08:56:02;1.70;57.30
44851;DHT22;30583;48.714;9.386;2023-02-27T08:58:27;1.60;57.10
44851;DHT22;30583;48.714;9.386;2023-02-27T09:00:53;1.80;56.70
44851;DHT22;30583;48.714;9.386;2023-02-27T09:03:19;1.70;56.40
44851;DHT22;30583;48.714;9.386;2023-02-27T09:05:47;2.00;57.10
44851;DHT22;30583;48.714;9.386;2023-02-27T09:08:13;2.10;55.40
44851;DHT22;30583;48.714;9.386;2023-02-27T09:10:38;2.00;55.00
44851;DHT22;30583;48.714;9.386;2023-02-27T09:13:04;2.10;54.90
44851;DHT22;30583;48.714;9.386;2023-02-27T09:15:30;2.30;55.10
44851;DHT22;30583;48.714;9.386;2023-02-27T09:17:56;2.40;53.70
44851;DHT22;30583;48.714;9.386;2023-02-27T09:20:28;2.10;53.50
44851;DHT22;30583;48.714;9.386;2023-02-27T09:22:54;2.40;53.00
44851;DHT22;30583;48.714;9.386;2023-02-27T09:25:19;2.70;53.20
44851;DHT22;30583;48.714;9.386;2023-02-27T09:27:45;3.10;53.00
44851;DHT22;30583;48.714;9.386;2023-02-27T09:30:11;3.00;51.80
44851;DHT22;30583;48.714;9.386;2023-02-27T09:32:37;2.90;51.20
44851;DHT22;30583;48.714;9.386;2023-02-27T09:35:04;3.30;50.80
44851;DHT22;30583;48.714;9.386;2023-02-27T09:37:29;3.30;51.00
44851;DHT22;30583;48.714;9.386;2023-02-27T09:39:55;3.40;50.00
44851;DHT22;30583;48.714;9.386;2023-02-27T09:42:23;3.50;49.90
44851;DHT22;30583;48.714;9.386;2023-02-27T09:44:55;3.60;49.40
44851;DHT22;30583;48.714;9.386;2023-02-27T09:47:34;3.50;49.40
44851;DHT22;30583;48.714;9.386;2023-02-27T09:50:22;3.50;46.70
44851;DHT22;30583;48.714;9.386;2023-02-27T09:52:49;3.80;47.70
44851;DHT22;30583;48.714;9.386;2023-02-27T09:55:19;4.20;47.10
44851;DHT22;30583;48.714;9.386;2023-02-27T10:00:44;4.90;46.00
44851;DHT22;30583;48.714;9.386;2023-02-27T10:11:18;4.60;45.00
44851;DHT22;30583;48.714;9.386;2023-02-27T10:16:33;4.70;46.40
44851;DHT22;30583;48.714;9.386;2023-02-27T10:19:02;5.20;45.50
44851;DHT22;30583;48.714;9.386;2023-02-27T10:21:43;4.60;45.50
44851;DHT22;30583;48.714;9.386;2023-02-27T10:26:58;5.00;45.70
44851;DHT22;30583;48.714;9.386;2023-02-27T10:29:33;4.80;44.50
44851;DHT22;30583;48.714;9.386;2023-02-27T10:32:10;5.70;44.90
44851;DHT22;30583;48.714;9.386;2023-02-27T10:34:38;6.60;43.30
44851;DHT22;30583;48.714;9.386;2023-02-27T10:37:05;6.30;42.50
44851;DHT22;30583;48.714;9.386;2023-02-27T10:39:53;6.00;42.30
44851;DHT22;30583;48.714;9.386;2023-02-27T10:42:20;6.10;43.50
44851;DHT22;30583;48.714;9.386;2023-02-27T10:44:47;6.40;41.50
44851;DHT22;30583;48.714;9.386;2023-02-27T10:47:21;5.80;42.50
44851;DHT22;30583;48.714;9.386;2023-02-27T10:49:48;7.00;42.60
44851;DHT22;30583;48.714;9.386;2023-02-27T10:52:15;6.30;41.70
44851;DHT22;30583;48.714;9.386;2023-02-27T10:54:43;6.70;42.50
44851;DHT22;30583;48.714;9.386;2023-02-27T10:57:25;7.60;40.00
44851;DHT22;30583;48.714;9.386;2023-02-27T11:00:00;6.60;40.70
44851;DHT22;30583;48.714;9.386;2023-02-27T11:02:38;7.00;40.80
44851;DHT22;30583;48.714;9.386;2023-02-27T11:05:06;6.20;40.00
44851;DHT22;30583;48.714;9.386;2023-02-27T11:07:40;6.50;39.70
44851;DHT22;30583;48.714;9.386;2023-02-27T11:12:39;7.70;38.10
44851;DHT22;30583;48.714;9.386;2023-02-27T11:17:40;6.90;38.40
44851;DHT22;30583;48.714;9.386;2023-02-27T11:20:36;7.60;39.00
44851;DHT22;30583;48.714;9.386;2023-02-27T11:23:09;7.40;37.40
44851;DHT22;30583;48.714;9.386;2023-02-27T11:25:38;6.60;37.30
44851;DHT22;30583;48.714;9.386;2023-02-27T11:28:23;6.20;39.50
44851;DHT22;30583;48.714;9.386;2023-02-27T11:31:16;5.90;39.90
44851;DHT22;30583;48.714;9.386;2023-02-27T11:33:53;5.90;40.40
44851;DHT22;30583;48.714;9.386;2023-02-27T11:36:20;5.60;40.90
44851;DHT22;30583;48.714;9.386;2023-02-27T11:38:53;6.40;40.00
44851;DHT22;30583;48.714;9.386;2023-02-27T11:41:29;5.90;40.50
44851;DHT22;30583;48.714;9.386;2023-02-27T11:43:58;5.90;40.00
44851;DHT22;30583;48.714;9.386;2023-02-27T11:46:25;5.70;40.20
44851;DHT22;30583;48.714;9.386;2023-02-27T11:48:58;5.30;41.20
44851;DHT22;30583;48.714;9.386;2023-02-27T11:54:19;5.60;40.20
44851;DHT22;30583;48.714;9.386;2023-02-27T11:56:57;5.20;41.70
44851;DHT22;30583;48.714;9.386;2023-02-27T11:59:38;4.80;42.70
44851;DHT22;30583;48.714;9.386;2023-02-27T12:02:14;4.60;43.10
44851;DHT22;30583;48.714;9.386;2023-02-27T12:07:15;4.80;43.70
44851;DHT22;30583;48.714;9.386;2023-02-27T12:10:05;5.30;41.50
44851;DHT22;30583;48.714;9.386;2023-02-27T12:12:55;5.30;40.70
44851;DHT22;30583;48.714;9.386;2023-02-27T12:15:25;5.90;41.00
44851;DHT22;30583;48.714;9.386;2023-02-27T12:18:02;6.10;38.70
44851;DHT22;30583;48.714;9.386;2023-02-27T12:23:37;4.70;41.10
44851;DHT22;30583;48.714;9.386;2023-02-27T12:26:11;4.50;41.70
44851;DHT22;30583;48.714;9.386;2023-02-27T12:28:42;5.20;42.70
44851;DHT22;30583;48.714;9.386;2023-02-27T12:31:36;6.00;40.30
44851;DHT22;30583;48.714;9.386;2023-02-27T12:36:47;5.40;40.10
44851;DHT22;30583;48.714;9.386;2023-02-27T12:39:21;5.40;40.00
44851;DHT22;30583;48.714;9.386;2023-02-27T12:48:31;7.60;39.30
44851;DHT22;30583;48.714;9.386;2023-02-27T12:51:15;8.10;37.60
44851;DHT22;30583;48.714;9.386;2023-02-27T12:54:26;7.30;40.10
44851;DHT22;30583;48.714;9.386;2023-02-27T12:59:39;7.30;38.30
44851;DHT22;30583;48.714;9.386;2023-02-27T13:07:37;5.70;40.80
44851;DHT22;30583;48.714;9.386;2023-02-27T13:10:19;5.10;42.20
44851;DHT22;30583;48.714;9.386;2023-02-27T13:12:55;5.10;43.40
44851;DHT22;30583;48.714;9.386;2023-02-27T13:15:29;4.80;42.70
44851;DHT22;30583;48.714;9.386;2023-02-27T13:18:09;4.90;43.00
44851;DHT22;30583;48.714;9.386;2023-02-27T13:20:50;4.50;44.60
44851;DHT22;30583;48.714;9.386;2023-02-27T13:23:26;4.60;43.90
44851;DHT22;30583;48.714;9.386;2023-02-27T13:25:55;5.30;43.00
44851;DHT22;30583;48.714;9.386;2023-02-27T13:28:25;5.30;42.50
44851;DHT22;30583;48.714;9.386;2023-02-27T13:31:11;4.90;42.60
44851;DHT22;30583;48.714;9.386;2023-02-27T13:33:51;5.30;43.00
44851;DHT22;30583;48.714;9.386;2023-02-27T13:36:26;5.40;41.70
44851;DHT22;30583;48.714;9.386;2023-02-27T13:38:55;5.30;42.40
44851;DHT22;30583;48.714;9.386;2023-02-27T13:43:56;5.20;43.50
44851;DHT22;30583;48.714;9.386;2023-02-27T13:46:29;5.20;42.70
44851;DHT22;30583;48.714;9.386;2023-02-27T13:56:48;5.30;42.20
44851;DHT22;30583;48.714;9.386;2023-02-27T14:01:55;6.80;40.00
44851;DHT22;30583;48.714;9.386;2023-02-27T14:04:22;6.70;38.90
44851;DHT22;30583;48.714;9.386;2023-02-27T14:06:58;5.50;41.50
44851;DHT22;30583;48.714;9.386;2023-02-27T14:09:25;5.20;41.90
44851;DHT22;30583;48.714;9.386;2023-02-27T14:11:59;5.20;42.30
44851;DHT22;30583;48.714;9.386;2023-02-27T14:17:01;5.10;42.70
44851;DHT22;30583;48.714;9.386;2023-02-27T14:19:45;5.50;43.20
44851;DHT22;30583;48.714;9.386;2023-02-27T14:24:55;6.60;40.20
44851;DHT22;30583;48.714;9.386;2023-02-27T14:27:25;5.70;40.30
44851;DHT22;30583;48.714;9.386;2023-02-27T14:29:57;4.90;40.80
44851;DHT22;30583;48.714;9.386;2023-02-27T14:32:32;5.10;42.20
44851;DHT22;30583;48.714;9.386;2023-02-27T14:34:58;5.20;41.80
44851;DHT22;30583;48.714;9.386;2023-02-27T14:37:25;5.40;41.50
44851;DHT22;30583;48.714;9.386;2023-02-27T14:39:53;5.30;42.00
44851;DHT22;30583;48.714;9.386;2023-02-27T14:43:02;5.10;42.10
44851;DHT22;30583;48.714;9.386;2023-02-27T14:45:21;4.70;43.20
44851;DHT22;30583;48.714;9.386;2023-02-27T14:47:51;4.70;44.40
44851;DHT22;30583;48.714;9.386;2023-02-27T14:50:27;5.10;44.10
44851;DHT22;30583;48.714;9.386;2023-02-27T14:52:53;5.60;41.70
44851;DHT22;30583;48.714;9.386;2023-02-27T14:55:25;4.90;42.70
44851;DHT22;30583;48.714;9.386;2023-02-27T14:58:15;5.00;43.30
44851;DHT22;30583;48.714;9.386;2023-02-27T15:00:44;4.70;42.90
44851;DHT22;30583;48.714;9.386;2023-02-27T15:03:24;4.20;41.50
44851;DHT22;30583;48.714;9.386;2023-02-27T15:05:54;4.60;42.10
44851;DHT22;30583;48.714;9.386;2023-02-27T15:08:25;4.40;43.10
44851;DHT22;30583;48.714;9.386;2023-02-27T15:10:54;4.20;43.20
44851;DHT22;30583;48.714;9.386;2023-02-27T15:13:26;4.00;43.60
44851;DHT22;30583;48.714;9.386;2023-02-27T15:18:52;4.30;43.90
44851;DHT22;30583;48.714;9.386;2023-02-27T15:21:20;4.10;43.80
44851;DHT22;30583;48.714;9.386;2023-02-27T15:23:57;3.80;44.90
44851;DHT22;30583;48.714;9.386;2023-02-27T15:26:23;3.90;44.90
44851;DHT22;30583;48.714;9.386;2023-02-27T15:28:50;4.00;44.70
44851;DHT22;30583;48.714;9.386;2023-02-27T15:31:22;3.90;45.40
44851;DHT22;30583;48.714;9.386;2023-02-27T15:33:49;4.00;45.60
44851;DHT22;30583;48.714;9.386;2023-02-27T15:36:29;3.90;45.90
44851;DHT22;30583;48.714;9.386;2023-02-27T15:41:41;3.60;45.00
44851;DHT22;30583;48.714;9.386;2023-02-27T15:44:12;3.70;45.10
44851;DHT22;30583;48.714;9.386;2023-02-27T15:46:38;3.70;44.40
44851;DHT22;30583;48.714;9.386;2023-02-27T15:49:04;3.70;43.70
44851;DHT22;30583;48.714;9.386;2023-02-27T15:51:30;3.70;45.10
44851;DHT22;30583;48.714;9.386;2023-02-27T15:53:58;3.60;45.00
44851;DHT22;30583;48.714;9.386;2023-02-27T15:56:33;3.50;45.30
44851;DHT22;30583;48.714;9.386;2023-02-27T15:59:01;4.10;44.70
44851;DHT22;30583;48.714;9.386;2023-02-27T16:01:29;3.60;44.90
44851;DHT22;30583;48.714;9.386;2023-02-27T16:03:59;3.70;45.10
44851;DHT22;30583;48.714;9.386;2023-02-27T16:06:34;4.00;45.70
44851;DHT22;30583;48.714;9.386;2023-02-27T16:09:06;3.80;45.30
44851;DHT22;30583;48.714;9.386;2023-02-27T16:11:42;3.50;45.60
44851;DHT22;30583;48.714;9.386;2023-02-27T16:14:38;3.40;46.30
44851;DHT22;30583;48.714;9.386;2023-02-27T16:17:24;3.50;45.30
44851;DHT22;30583;48.714;9.386;2023-02-27T16:19:51;3.40;45.90
44851;DHT22;30583;48.714;9.386;2023-02-27T16:22:18;3.40;46.30
44851;DHT22;30583;48.714;9.386;2023-02-27T16:24:45;3.70;45.20
44851;DHT22;30583;48.714;9.386;2023-02-27T16:27:29;3.50;45.70
44851;DHT22;30583;48.714;9.386;2023-02-27T16:29:57;3.50;46.00
44851;DHT22;30583;48.714;9.386;2023-02-27T16:32:40;10.90;64.70
44851;DHT22;30583;48.714;9.386;2023-02-27T16:35:19;7.30;35.70
44851;DHT22;30583;48.714;9.386;2023-02-27T16:37:46;4.60;41.30
44851;DHT22;30583;48.714;9.386;2023-02-27T16:40:20;3.80;43.20
44851;DHT22;30583;48.714;9.386;2023-02-27T16:42:50;3.40;44.10
44851;DHT22;30583;48.714;9.386;2023-02-27T16:45:21;3.70;44.40
44851;DHT22;30583;48.714;9.386;2023-02-27T16:47:49;3.40;43.60
44851;DHT22;30583;48.714;9.386;2023-02-27T16:52:49;3.30;44.50
44851;DHT22;30583;48.714;9.386;2023-02-27T16:55:15;3.20;44.00
44851;DHT22;30583;48.714;9.386;2023-02-27T16:57:41;3.20;44.40
44851;DHT22;30583;48.714;9.386;2023-02-27T17:00:10;3.30;44.40
44851;DHT22;30583;48.714;9.386;2023-02-27T17:02:37;3.30;44.40
44851;DHT22;30583;48.714;9.386;2023-02-27T17:05:03;3.40;43.90
44851;DHT22;30583;48.714;9.386;2023-02-27T17:07:29;3.20;43.30
44851;DHT22;30583;48.714;9.386;2023-02-27T17:09:55;3.10;43.90
44851;DHT22;30583;48.714;9.386;2023-02-27T17:12:20;3.00;44.10
44851;DHT22;30583;48.714;9.386;2023-02-27T17:14:46;2.80;43.50
44851;DHT22;30583;48.714;9.386;2023-02-27T17:17:12;3.30;43.40
44851;DHT22;30583;48.714;9.386;2023-02-27T17:19:38;2.70;44.10
44851;DHT22;30583;48.714;9.386;2023-02-27T17:22:03;3.20;44.90
44851;DHT22;30583;48.714;9.386;2023-02-27T17:24:29;3.20;45.00
44851;DHT22;30583;48.714;9.386;2023-02-27T17:26:55;3.00;44.80
44851;DHT22;30583;48.714;9.386;2023-02-27T17:29:21;3.10;44.40
44851;DHT22;30583;48.714;9.386;2023-02-27T17:31:48;3.50;44.20
44851;DHT22;30583;48.714;9.386;2023-02-27T17:34:14;3.20;43.50
44851;DHT22;30583;48.714;9.386;2023-02-27T17:36:41;2.90;43.90
44851;DHT22;30583;48.714;9.386;2023-02-27T17:39:06;2.90;44.20
44851;DHT22;30583;48.714;9.386;2023-02-27T17:41:33;3.10;44.70
44851;DHT22;30583;48.714;9.386;2023-02-27T17:43:59;2.90;44.40
44851;DHT22;30583;48.714;9.386;2023-02-27T17:46:27;2.70;44.70
44851;DHT22;30583;48.714;9.386;2023-02-27T17:48:53;3.00;44.40
44851;DHT22;30583;48.714;9.386;2023-02-27T17:51:20;3.20;44.00
44851;DHT22;30583;48.714;9.386;2023-02-27T17:53:46;3.20;43.90
44851;DHT22;30583;48.714;9.386;2023-02-27T17:56:12;2.70;44.90
44851;DHT22;30583;48.714;9.386;2023-02-27T17:58:38;2.40;45.30